Terminal Aerodrome Forecast
Issued by NWS Rapid City, SD

Home | Current Version | Previous Version | Text Only | Print | Product List | Glossary Off
Versions: 1 2 3 4 5 6 7 8 9 10 11 12 13

128
FTUS43 KUNR 031120
TAFRAP
TAF
KRAP 031120Z 0312/0412 32006KT 5SM -SHSN OVC035
      TEMPO 0312/0315 2SM -SHSN BKN025
     FM031500 34015KT P6SM -SHSN OVC035
     FM031900 33015KT P6SM BKN050
     FM040100 VRB05KT P6SM BKN200=

USA.gov is the U.S. government's official web portal to all federal, state and local government web resources and services.